createdAt,value
2018-09-14T00:00:14.151Z,0
2018-09-14T00:01:14.725Z,0
2018-09-14T00:02:15.301Z,0
2018-09-14T00:03:15.874Z,0
2018-09-14T00:04:16.447Z,0
2018-09-14T00:05:17.023Z,0
2018-09-14T00:06:17.597Z,0
2018-09-14T00:07:18.170Z,0
2018-09-14T00:08:18.744Z,0
2018-09-14T00:09:19.333Z,0
2018-09-14T00:10:19.906Z,0
2018-09-14T00:11:20.481Z,0
2018-09-14T00:12:21.054Z,0
2018-09-14T00:13:21.644Z,0
2018-09-14T00:14:22.218Z,0
2018-09-14T00:15:22.794Z,0
2018-09-14T00:16:23.372Z,0
2018-09-14T00:17:23.956Z,0
2018-09-14T00:18:24.532Z,0
2018-09-14T00:19:25.105Z,0
2018-09-14T00:20:25.678Z,0
2018-09-14T00:21:26.252Z,0
2018-09-14T00:22:26.825Z,0
2018-09-14T00:23:27.414Z,0
2018-09-14T00:24:28.001Z,0
2018-09-14T00:25:28.577Z,0
2018-09-14T00:26:29.150Z,0
2018-09-14T00:27:29.724Z,0
2018-09-14T00:28:30.298Z,0
2018-09-14T00:29:30.875Z,0
2018-09-14T00:30:31.461Z,0
2018-09-14T00:31:32.036Z,0
2018-09-14T00:32:32.609Z,0
2018-09-14T00:33:33.183Z,0
2018-09-14T00:34:33.756Z,0
2018-09-14T00:35:34.344Z,0
2018-09-14T00:36:34.918Z,0
2018-09-14T00:37:35.504Z,0
2018-09-14T00:38:36.092Z,0
2018-09-14T00:39:36.665Z,0
2018-09-14T00:40:37.239Z,0
2018-09-14T00:41:37.815Z,0
2018-09-14T00:42:38.388Z,0
2018-09-14T00:43:38.961Z,0
2018-09-14T00:44:39.536Z,0
2018-09-14T00:45:40.110Z,0
2018-09-14T00:46:40.684Z,0
2018-09-14T00:47:41.257Z,0
2018-09-14T00:48:41.832Z,0
2018-09-14T00:49:42.406Z,0
2018-09-14T00:50:42.980Z,0
2018-09-14T00:51:43.568Z,0
2018-09-14T00:52:44.140Z,0
2018-09-14T00:53:44.713Z,0
2018-09-14T00:54:45.289Z,0
2018-09-14T00:55:45.875Z,0
2018-09-14T00:56:46.459Z,0
2018-09-14T00:57:47.032Z,0
2018-09-14T00:58:47.605Z,0
2018-09-14T00:59:48.181Z,0
2018-09-14T01:00:48.754Z,0
2018-09-14T01:01:49.326Z,0
2018-09-14T01:02:49.898Z,0
2018-09-14T01:03:50.472Z,0
2018-09-14T01:04:51.046Z,0
2018-09-14T01:05:51.619Z,0
2018-09-14T01:06:52.192Z,0
2018-09-14T01:07:52.764Z,0
2018-09-14T01:08:53.338Z,0
2018-09-14T01:09:53.913Z,0
2018-09-14T01:10:54.487Z,0
2018-09-14T01:11:55.070Z,0
2018-09-14T01:12:55.642Z,0
2018-09-14T01:13:56.215Z,0
2018-09-14T01:14:56.788Z,0
2018-09-14T01:15:57.365Z,0
2018-09-14T01:16:57.936Z,0
2018-09-14T01:17:58.524Z,0
2018-09-14T01:18:59.098Z,0
2018-09-14T01:19:59.670Z,0
2018-09-14T01:21:00.244Z,0
2018-09-14T01:22:00.817Z,0
2018-09-14T01:23:01.391Z,0
2018-09-14T01:24:01.962Z,0
2018-09-14T01:25:02.534Z,0
2018-09-14T01:26:03.107Z,0
2018-09-14T01:27:03.680Z,0
2018-09-14T01:28:04.254Z,0
2018-09-14T01:29:04.829Z,0
2018-09-14T01:30:05.400Z,0
2018-09-14T01:31:05.972Z,0
2018-09-14T01:32:06.551Z,0
2018-09-14T01:33:07.119Z,0
2018-09-14T01:34:07.692Z,0
2018-09-14T01:35:08.278Z,0
2018-09-14T01:36:08.851Z,0
2018-09-14T01:37:09.424Z,0
2018-09-14T01:38:10.011Z,0
2018-09-14T01:39:10.584Z,0
2018-09-14T01:40:11.160Z,0
2018-09-14T01:41:11.730Z,0
2018-09-14T01:42:12.304Z,0
2018-09-14T01:43:12.876Z,0
2018-09-14T01:44:13.449Z,0
2018-09-14T01:45:14.022Z,0
2018-09-14T01:46:14.598Z,0
2018-09-14T01:47:15.184Z,0
2018-09-14T01:48:15.755Z,0
2018-09-14T01:49:16.330Z,0
2018-09-14T01:50:16.909Z,0
2018-09-14T01:51:17.476Z,0
2018-09-14T01:52:18.051Z,0
2018-09-14T01:53:18.624Z,0
2018-09-14T01:54:19.196Z,0
2018-09-14T01:55:19.768Z,0
2018-09-14T01:56:20.341Z,0
2018-09-14T01:57:20.928Z,0
2018-09-14T01:58:21.502Z,0
2018-09-14T01:59:22.074Z,0
2018-09-14T02:00:22.649Z,0
2018-09-14T02:01:23.220Z,0
2018-09-14T02:02:23.792Z,0
2018-09-14T02:03:24.382Z,0
2018-09-14T02:04:24.939Z,0
2018-09-14T02:05:25.512Z,0
2018-09-14T02:06:26.085Z,0
2018-09-14T02:07:26.658Z,0
2018-09-14T02:08:27.233Z,0
2018-09-14T02:09:27.807Z,0
2018-09-14T02:10:28.378Z,0
2018-09-14T02:11:28.951Z,0
2018-09-14T02:12:29.525Z,0
2018-09-14T02:13:30.100Z,0
2018-09-14T02:14:30.673Z,0
2018-09-14T02:15:31.246Z,0
2018-09-14T02:16:31.818Z,0
2018-09-14T02:17:32.392Z,0
2018-09-14T02:18:32.970Z,0
2018-09-14T02:19:33.553Z,0
2018-09-14T02:20:34.125Z,0
2018-09-14T02:21:34.712Z,0
2018-09-14T02:22:35.285Z,0
2018-09-14T02:23:35.859Z,0
2018-09-14T02:24:36.431Z,0
2018-09-14T02:25:37.059Z,0
2018-09-14T02:26:37.578Z,0
2018-09-14T02:27:38.151Z,0
2018-09-14T02:28:38.726Z,0
2018-09-14T02:29:39.303Z,0
2018-09-14T02:30:39.872Z,0
2018-09-14T02:31:40.444Z,0
2018-09-14T02:32:41.017Z,0
2018-09-14T02:33:41.594Z,0
2018-09-14T02:34:42.164Z,0
2018-09-14T02:35:42.735Z,0
2018-09-14T02:36:43.307Z,0
2018-09-14T02:37:43.882Z,0
2018-09-14T02:38:44.455Z,0
2018-09-14T02:39:45.039Z,0
2018-09-14T02:40:45.604Z,0
2018-09-14T02:41:46.175Z,0
2018-09-14T02:42:46.746Z,0
2018-09-14T02:43:47.321Z,0
2018-09-14T02:44:47.901Z,0
2018-09-14T02:45:48.479Z,0
2018-09-14T02:46:49.053Z,0
2018-09-14T02:47:49.626Z,0
2018-09-14T02:48:50.198Z,0
2018-09-14T02:49:50.773Z,0
2018-09-14T02:50:51.344Z,0
2018-09-14T02:51:51.916Z,0
2018-09-14T02:52:52.491Z,0
2018-09-14T02:53:53.060Z,0
2018-09-14T02:54:53.645Z,0
2018-09-14T02:55:54.224Z,0
2018-09-14T02:56:54.793Z,0
2018-09-14T02:57:55.365Z,0
2018-09-14T02:58:55.941Z,0
2018-09-14T02:59:56.531Z,0
2018-09-14T03:00:57.087Z,0
2018-09-14T03:01:57.672Z,0
2018-09-14T03:02:58.243Z,0
2018-09-14T03:03:58.819Z,0
2018-09-14T03:04:59.390Z,0
2018-09-14T03:05:59.965Z,0
2018-09-14T03:07:00.537Z,0
2018-09-14T03:08:01.110Z,0
2018-09-14T03:09:01.682Z,0
2018-09-14T03:10:02.255Z,0
2018-09-14T03:11:02.824Z,0
2018-09-14T03:12:03.411Z,0
2018-09-14T03:13:03.984Z,0
2018-09-14T03:14:04.571Z,0
2018-09-14T03:15:05.146Z,0
2018-09-14T03:16:05.720Z,0
2018-09-14T03:17:06.291Z,0
2018-09-14T03:18:06.877Z,0
2018-09-14T03:19:07.449Z,0
2018-09-14T03:20:08.021Z,0
2018-09-14T03:21:08.595Z,0
2018-09-14T03:22:09.168Z,0
2018-09-14T03:23:09.756Z,0
2018-09-14T03:24:10.329Z,0
2018-09-14T03:25:10.900Z,0
2018-09-14T03:26:11.473Z,0
2018-09-14T03:27:12.047Z,0
2018-09-14T03:28:12.620Z,0
2018-09-14T03:29:13.207Z,0
2018-09-14T03:30:13.780Z,0
2018-09-14T03:31:14.362Z,0
2018-09-14T03:32:14.957Z,0
2018-09-14T03:33:15.497Z,0
2018-09-14T03:34:16.073Z,0
2018-09-14T03:35:16.659Z,0
2018-09-14T03:36:17.232Z,0
2018-09-14T03:37:17.804Z,0
2018-09-14T03:38:18.382Z,0
2018-09-14T03:39:19.004Z,0
2018-09-14T03:40:19.522Z,0
2018-09-14T03:41:20.095Z,0
2018-09-14T03:42:20.666Z,0
2018-09-14T03:43:21.242Z,0
2018-09-14T03:44:21.815Z,0
2018-09-14T03:45:22.388Z,0
2018-09-14T03:46:22.961Z,0
2018-09-14T03:47:23.533Z,0
2018-09-14T03:48:24.107Z,0
2018-09-14T03:49:24.695Z,0
2018-09-14T03:50:25.266Z,0
2018-09-14T03:51:25.854Z,0
2018-09-14T03:52:26.427Z,0
2018-09-14T03:53:26.999Z,0
2018-09-14T03:54:27.570Z,0
2018-09-14T03:55:28.145Z,0
2018-09-14T03:56:28.716Z,0
2018-09-14T03:57:29.290Z,0
2018-09-14T03:58:29.861Z,0
2018-09-14T03:59:30.441Z,0
2018-09-14T04:00:31.009Z,0
2018-09-14T04:01:31.581Z,0
2018-09-14T04:02:32.170Z,0
2018-09-14T04:03:32.744Z,0
2018-09-14T04:04:33.327Z,0
2018-09-14T04:05:33.914Z,0
2018-09-14T04:06:34.488Z,0
2018-09-14T04:07:35.113Z,0
2018-09-14T04:08:35.629Z,0
2018-09-14T04:09:36.203Z,0
2018-09-14T04:10:36.791Z,0
2018-09-14T04:11:37.361Z,0
2018-09-14T04:12:37.933Z,0
2018-09-14T04:13:38.507Z,0
2018-09-14T04:14:39.091Z,0
2018-09-14T04:15:39.666Z,0
2018-09-14T04:16:40.248Z,0
2018-09-14T04:17:40.823Z,0
2018-09-14T04:18:41.395Z,0
2018-09-14T04:19:41.966Z,0
2018-09-14T04:20:42.543Z,0
2018-09-14T04:21:43.127Z,0
2018-09-14T04:22:43.700Z,0
2018-09-14T04:23:44.308Z,0
2018-09-14T04:24:44.846Z,0
2018-09-14T04:25:45.416Z,0
2018-09-14T04:26:45.990Z,0
2018-09-14T04:27:46.563Z,0
2018-09-14T04:28:47.134Z,0
2018-09-14T04:29:47.704Z,0
2018-09-14T04:30:48.278Z,0
2018-09-14T04:31:48.852Z,0
2018-09-14T04:32:49.439Z,0
2018-09-14T04:33:50.013Z,0
2018-09-14T04:34:50.582Z,0
2018-09-14T04:35:51.152Z,0
2018-09-14T04:36:51.723Z,0
2018-09-14T04:37:52.297Z,0
2018-09-14T04:38:52.869Z,0
2018-09-14T04:39:53.441Z,0
2018-09-14T04:40:54.052Z,0
2018-09-14T04:41:54.586Z,0
2018-09-14T04:42:55.170Z,0
2018-09-14T04:43:55.743Z,0
2018-09-14T04:44:56.316Z,4
2018-09-14T04:45:56.902Z,0
2018-09-14T04:46:57.475Z,0
2018-09-14T04:47:58.047Z,4
2018-09-14T04:48:58.618Z,0
2018-09-14T04:49:59.204Z,4
2018-09-14T04:50:59.776Z,0
2018-09-14T04:52:00.349Z,4
2018-09-14T04:53:00.923Z,4
2018-09-14T04:54:01.494Z,8
2018-09-14T04:55:02.069Z,4
2018-09-14T04:56:02.640Z,4
2018-09-14T04:57:03.220Z,4
2018-09-14T04:58:03.798Z,4
2018-09-14T04:59:04.386Z,8
2018-09-14T05:00:04.960Z,12
2018-09-14T05:01:05.533Z,12
2018-09-14T05:02:06.106Z,12
2018-09-14T05:03:06.734Z,16
2018-09-14T05:04:07.253Z,16
2018-09-14T05:05:07.825Z,20
2018-09-14T05:06:08.398Z,16
2018-09-14T05:07:08.988Z,20
2018-09-14T05:08:09.574Z,24
2018-09-14T05:09:10.147Z,24
2018-09-14T05:10:10.735Z,24
2018-09-14T05:11:11.307Z,28
2018-09-14T05:12:11.884Z,32
2018-09-14T05:13:12.468Z,32
2018-09-14T05:14:13.046Z,32
2018-09-14T05:15:13.613Z,40
2018-09-14T05:16:14.187Z,40
2018-09-14T05:17:14.762Z,40
2018-09-14T05:18:15.351Z,44
2018-09-14T05:19:15.939Z,48
2018-09-14T05:20:16.511Z,48
2018-09-14T05:21:17.083Z,52
2018-09-14T05:22:17.658Z,56
2018-09-14T05:23:18.247Z,60
2018-09-14T05:24:18.818Z,60
2018-09-14T05:25:19.392Z,64
2018-09-14T05:26:19.965Z,68
2018-09-14T05:27:20.539Z,72
2018-09-14T05:28:21.113Z,76
2018-09-14T05:29:21.685Z,76
2018-09-14T05:30:22.259Z,80
2018-09-14T05:31:22.832Z,84
2018-09-14T05:32:23.406Z,84
2018-09-14T05:33:23.984Z,92
2018-09-14T05:34:24.553Z,92
2018-09-14T05:35:25.125Z,96
2018-09-14T05:36:25.700Z,100
2018-09-14T05:37:26.292Z,104
2018-09-14T05:38:26.974Z,108
2018-09-14T05:39:27.436Z,108
2018-09-14T05:40:28.015Z,112
2018-09-14T05:41:28.598Z,116
2018-09-14T05:42:29.172Z,120
2018-09-14T05:43:29.746Z,120
2018-09-14T05:44:30.321Z,124
2018-09-14T05:45:30.895Z,128
2018-09-14T05:46:31.470Z,132
2018-09-14T05:47:32.045Z,136
2018-09-14T05:48:32.620Z,140
2018-09-14T05:49:33.198Z,144
2018-09-14T05:50:33.783Z,144
2018-09-14T05:51:34.372Z,148
2018-09-14T05:52:34.949Z,152
2018-09-14T05:53:35.524Z,152
2018-09-14T05:54:36.165Z,156
2018-09-14T05:55:36.671Z,156
2018-09-14T05:56:37.249Z,160
2018-09-14T05:57:37.819Z,164
2018-09-14T05:58:38.405Z,164
2018-09-14T05:59:38.985Z,164
2018-09-14T06:00:39.570Z,168
2018-09-14T06:01:40.144Z,172
2018-09-14T06:02:40.718Z,172
2018-09-14T06:03:41.294Z,176
2018-09-14T06:04:41.869Z,180
2018-09-14T06:05:42.460Z,184
2018-09-14T06:06:43.037Z,184
2018-09-14T06:07:43.607Z,192
2018-09-14T06:08:44.189Z,192
2018-09-14T06:09:44.756Z,192
2018-09-14T06:10:45.334Z,196
2018-09-14T06:11:45.909Z,200
2018-09-14T06:12:46.483Z,204
2018-09-14T06:13:47.059Z,204
2018-09-14T06:14:47.635Z,204
2018-09-14T06:15:48.222Z,212
2018-09-14T06:16:48.811Z,212
2018-09-14T06:17:49.374Z,212
2018-09-14T06:18:49.964Z,216
2018-09-14T06:19:50.538Z,220
2018-09-14T06:20:51.115Z,224
2018-09-14T06:21:51.692Z,228
2018-09-14T06:22:52.308Z,228
2018-09-14T06:23:52.843Z,236
2018-09-14T06:24:53.419Z,236
2018-09-14T06:25:53.994Z,240
2018-09-14T06:26:54.569Z,240
2018-09-14T06:27:55.148Z,240
2018-09-14T06:28:55.736Z,248
2018-09-14T06:29:56.311Z,252
2018-09-14T06:30:56.888Z,252
2018-09-14T06:31:57.462Z,252
2018-09-14T06:32:58.039Z,256
2018-09-14T06:33:58.630Z,260
2018-09-14T06:34:59.204Z,260
2018-09-14T06:35:59.780Z,264
2018-09-14T06:37:00.358Z,264
2018-09-14T06:38:00.934Z,268
2018-09-14T06:39:01.533Z,268
2018-09-14T06:40:02.115Z,272
2018-09-14T06:41:02.690Z,272
2018-09-14T06:42:03.275Z,276
2018-09-14T06:43:03.853Z,280
2018-09-14T06:44:04.429Z,280
2018-09-14T06:45:05.031Z,280
2018-09-14T06:46:05.583Z,284
2018-09-14T06:47:06.173Z,284
2018-09-14T06:48:06.748Z,284
2018-09-14T06:49:07.324Z,288
2018-09-14T06:50:07.901Z,288
2018-09-14T06:51:08.476Z,288
2018-09-14T06:52:09.112Z,288
2018-09-14T06:53:09.638Z,288
2018-09-14T06:54:10.206Z,292
2018-09-14T06:55:10.783Z,292
2018-09-14T06:56:11.362Z,300
2018-09-14T06:57:11.936Z,304
2018-09-14T06:58:12.514Z,304
2018-09-14T06:59:13.087Z,304
2018-09-14T07:00:13.758Z,308
2018-09-14T07:01:14.242Z,304
2018-09-14T07:02:14.837Z,308
2018-09-14T07:03:15.396Z,312
2018-09-14T07:04:15.971Z,316
2018-09-14T07:05:16.547Z,316
2018-09-14T07:06:17.134Z,320
2018-09-14T07:07:17.704Z,320
2018-09-14T07:08:18.280Z,320
2018-09-14T07:09:18.856Z,324
2018-09-14T07:10:19.432Z,324
2018-09-14T07:11:20.011Z,332
2018-09-14T07:12:20.589Z,332
2018-09-14T07:13:21.236Z,332
2018-09-14T07:14:21.740Z,332
2018-09-14T07:15:22.316Z,336
2018-09-14T07:16:22.894Z,340
2018-09-14T07:17:23.484Z,340
2018-09-14T07:18:24.062Z,340
2018-09-14T07:19:24.638Z,344
2018-09-14T07:20:25.216Z,348
2018-09-14T07:21:25.792Z,344
2018-09-14T07:22:26.418Z,344
2018-09-14T07:23:26.949Z,344
2018-09-14T07:24:27.576Z,344
2018-09-14T07:25:28.104Z,344
2018-09-14T07:26:28.690Z,348
2018-09-14T07:27:29.257Z,352
2018-09-14T07:28:29.834Z,356
2018-09-14T07:29:30.437Z,360
2018-09-14T07:30:31.003Z,364
2018-09-14T07:31:31.636Z,360
2018-09-14T07:32:32.192Z,364
2018-09-14T07:33:32.734Z,364
2018-09-14T07:34:33.312Z,368
2018-09-14T07:35:33.889Z,372
2018-09-14T07:36:34.514Z,368
2018-09-14T07:37:35.045Z,368
2018-09-14T07:38:35.622Z,364
2018-09-14T07:39:36.198Z,364
2018-09-14T07:40:36.778Z,364
2018-09-14T07:41:37.354Z,368
2018-09-14T07:42:38.061Z,372
2018-09-14T07:43:38.512Z,372
2018-09-14T07:44:39.090Z,372
2018-09-14T07:45:39.677Z,376
2018-09-14T07:46:40.263Z,380
2018-09-14T07:47:40.839Z,384
2018-09-14T07:48:41.429Z,380
2018-09-14T07:49:42.004Z,384
2018-09-14T07:50:42.583Z,384
2018-09-14T07:51:43.161Z,384
2018-09-14T07:52:43.737Z,388
2018-09-14T07:53:44.316Z,392
2018-09-14T07:54:44.898Z,388
2018-09-14T07:55:45.469Z,392
2018-09-14T07:56:46.047Z,392
2018-09-14T07:57:46.625Z,396
2018-09-14T07:58:47.205Z,396
2018-09-14T07:59:47.794Z,400
2018-09-14T08:00:48.373Z,404
2018-09-14T08:01:48.951Z,404
2018-09-14T08:02:49.546Z,408
2018-09-14T08:03:50.122Z,412
2018-09-14T08:04:50.701Z,412
2018-09-14T08:05:51.279Z,412
2018-09-14T08:06:51.860Z,412
2018-09-14T08:07:52.442Z,416
2018-09-14T08:08:53.013Z,416
2018-09-14T08:09:53.592Z,420
2018-09-14T08:10:54.170Z,420
2018-09-14T08:11:54.766Z,420
2018-09-14T08:12:55.326Z,420
2018-09-14T08:13:55.905Z,420
2018-09-14T08:14:56.502Z,420
2018-09-14T08:15:57.079Z,424
2018-09-14T08:16:57.658Z,424
2018-09-14T08:17:58.235Z,424
2018-09-14T08:18:58.815Z,424
2018-09-14T08:19:59.405Z,428
2018-09-14T08:20:59.998Z,428
2018-09-14T08:22:00.622Z,428
2018-09-14T08:23:01.146Z,432
2018-09-14T08:24:01.723Z,432
2018-09-14T08:25:02.304Z,432
2018-09-14T08:26:02.881Z,432
2018-09-14T08:27:03.472Z,436
2018-09-14T08:28:04.052Z,440
2018-09-14T08:29:04.632Z,440
2018-09-14T08:30:05.212Z,440
2018-09-14T08:31:05.791Z,444
2018-09-14T08:32:06.371Z,440
2018-09-14T08:33:06.949Z,444
2018-09-14T08:34:07.528Z,448
2018-09-14T08:35:08.120Z,448
2018-09-14T08:36:11.705Z,448
2018-09-14T08:37:12.284Z,448
2018-09-14T08:38:12.865Z,448
2018-09-14T08:39:13.447Z,452
2018-09-14T08:40:14.021Z,456
2018-09-14T08:41:14.600Z,452
2018-09-14T08:42:15.179Z,456
2018-09-14T08:43:15.756Z,460
2018-09-14T08:44:16.339Z,460
2018-09-14T08:45:16.927Z,460
2018-09-14T08:46:17.508Z,460
2018-09-14T08:47:18.085Z,460
2018-09-14T08:48:18.666Z,464
2018-09-14T08:49:19.246Z,468
2018-09-14T08:50:19.824Z,468
2018-09-14T08:51:20.406Z,472
2018-09-14T08:52:20.986Z,476
2018-09-14T08:53:21.564Z,476
2018-09-14T08:54:22.145Z,476
2018-09-14T08:55:22.725Z,476
2018-09-14T08:56:23.305Z,476
2018-09-14T08:57:23.897Z,476
2018-09-14T08:58:24.477Z,480
2018-09-14T08:59:25.056Z,484
2018-09-14T09:00:25.636Z,484
2018-09-14T09:01:26.216Z,484
2018-09-14T09:02:26.798Z,488
2018-09-14T09:03:27.421Z,492
2018-09-14T09:04:27.974Z,488
2018-09-14T09:05:28.551Z,488
2018-09-14T09:06:29.138Z,492
2018-09-14T09:07:29.727Z,492
2018-09-14T09:08:30.306Z,496
2018-09-14T09:09:30.886Z,500
2018-09-14T09:10:31.468Z,500
2018-09-14T09:11:32.106Z,504
2018-09-14T09:12:32.643Z,508
2018-09-14T09:13:33.224Z,508
2018-09-14T09:14:33.803Z,508
2018-09-14T09:15:34.386Z,512
2018-09-14T09:16:34.978Z,512
2018-09-14T09:17:35.601Z,512
2018-09-14T09:18:36.136Z,516
2018-09-14T09:19:36.716Z,516
2018-09-14T09:20:37.296Z,512
2018-09-14T09:21:37.874Z,520
2018-09-14T09:22:38.460Z,524
2018-09-14T09:23:39.050Z,528
2018-09-14T09:24:39.628Z,528
2018-09-14T09:25:40.208Z,536
2018-09-14T09:26:40.789Z,532
2018-09-14T09:27:41.368Z,532
2018-09-14T09:28:41.951Z,536
2018-09-14T09:29:42.530Z,536
2018-09-14T09:30:43.108Z,540
2018-09-14T09:31:43.689Z,544
2018-09-14T09:32:44.268Z,548
2018-09-14T09:33:44.863Z,548
2018-09-14T09:34:45.441Z,548
2018-09-14T09:35:46.022Z,548
2018-09-14T09:36:46.616Z,552
2018-09-14T09:37:47.197Z,556
2018-09-14T09:38:47.775Z,552
2018-09-14T09:39:48.356Z,560
2018-09-14T09:40:48.934Z,560
2018-09-14T09:41:49.516Z,572
2018-09-14T09:42:50.100Z,572
2018-09-14T09:43:50.681Z,576
2018-09-14T09:44:51.255Z,580
2018-09-14T09:45:51.835Z,584
2018-09-14T09:46:52.415Z,588
2018-09-14T09:47:52.996Z,592
2018-09-14T09:48:53.576Z,588
2018-09-14T09:49:54.156Z,560
2018-09-14T09:50:54.849Z,596
2018-09-14T09:51:55.317Z,604
2018-09-14T09:52:55.898Z,600
2018-09-14T09:53:56.479Z,608
2018-09-14T09:54:57.061Z,612
2018-09-14T09:55:57.642Z,608
2018-09-14T09:56:58.224Z,612
2018-09-14T09:57:58.816Z,620
2018-09-14T09:58:59.396Z,620
2018-09-14T09:59:59.976Z,608
2018-09-14T10:01:00.557Z,624
2018-09-14T10:02:01.142Z,632
2018-09-14T10:03:01.728Z,640
2018-09-14T10:04:02.345Z,644
2018-09-14T10:05:02.880Z,444
2018-09-14T10:06:03.459Z,632
2018-09-14T10:07:04.039Z,636
2018-09-14T10:08:04.620Z,632
2018-09-14T10:09:05.200Z,640
2018-09-14T10:10:05.781Z,652
2018-09-14T10:11:06.363Z,668
2018-09-14T10:12:06.942Z,680
2018-09-14T10:13:07.524Z,692
2018-09-14T10:14:08.136Z,688
2018-09-14T10:15:08.757Z,684
2018-09-14T10:16:09.272Z,688
2018-09-14T10:17:09.857Z,660
2018-09-14T10:18:10.447Z,676
2018-09-14T10:19:11.029Z,664
2018-09-14T10:20:11.609Z,668
2018-09-14T10:21:12.273Z,664
2018-09-14T10:22:12.772Z,640
2018-09-14T10:23:13.352Z,652
2018-09-14T10:24:13.934Z,660
2018-09-14T10:25:14.516Z,712
2018-09-14T10:26:15.096Z,736
2018-09-14T10:27:15.676Z,736
2018-09-14T10:28:16.259Z,744
2018-09-14T10:29:16.841Z,740
2018-09-14T10:30:17.422Z,740
2018-09-14T10:31:18.005Z,732
2018-09-14T10:32:18.583Z,728
2018-09-14T10:33:19.179Z,528
2018-09-14T10:34:19.773Z,720
2018-09-14T10:35:20.353Z,736
2018-09-14T10:36:20.934Z,744
2018-09-14T10:37:21.548Z,732
2018-09-14T10:38:22.094Z,728
2018-09-14T10:39:22.675Z,728
2018-09-14T10:40:23.306Z,748
2018-09-14T10:41:23.837Z,756
2018-09-14T10:42:24.417Z,768
2018-09-14T10:43:25.003Z,772
2018-09-14T10:44:25.579Z,764
2018-09-14T10:45:26.204Z,752
2018-09-14T10:46:26.743Z,736
2018-09-14T10:47:27.326Z,728
2018-09-14T10:48:27.904Z,736
2018-09-14T10:49:28.487Z,744
2018-09-14T10:50:29.068Z,760
2018-09-14T10:51:29.650Z,768
2018-09-14T10:52:30.230Z,772
2018-09-14T10:53:30.810Z,784
2018-09-14T10:54:31.403Z,780
2018-09-14T10:55:31.984Z,784
2018-09-14T10:56:32.566Z,756
2018-09-14T10:57:33.145Z,824
2018-09-14T10:58:33.725Z,840
2018-09-14T10:59:34.307Z,856
2018-09-14T11:00:34.887Z,836
2018-09-14T11:01:35.470Z,816
2018-09-14T11:02:36.050Z,804
2018-09-14T11:03:36.629Z,768
2018-09-14T11:04:37.225Z,756
2018-09-14T11:05:37.806Z,656
2018-09-14T11:06:38.398Z,520
2018-09-14T11:07:38.983Z,500
2018-09-14T11:08:39.565Z,484
2018-09-14T11:09:40.145Z,488
2018-09-14T11:10:40.738Z,528
2018-09-14T11:11:41.320Z,752
2018-09-14T11:12:41.992Z,752
2018-09-14T11:13:42.491Z,760
2018-09-14T11:14:43.073Z,764
2018-09-14T11:15:43.655Z,760
2018-09-14T11:16:44.236Z,756
2018-09-14T11:17:44.832Z,768
2018-09-14T11:18:45.524Z,664
2018-09-14T11:19:45.997Z,752
2018-09-14T11:20:46.577Z,768
2018-09-14T11:21:47.172Z,768
2018-09-14T11:22:47.753Z,764
2018-09-14T11:23:48.350Z,760
2018-09-14T11:24:49.071Z,756
2018-09-14T11:25:49.522Z,748
2018-09-14T11:26:50.116Z,732
2018-09-14T11:27:50.701Z,716
2018-09-14T11:28:51.278Z,716
2018-09-14T11:29:51.860Z,716
2018-09-14T11:30:52.447Z,708
2018-09-14T11:31:53.040Z,700
2018-09-14T11:32:53.623Z,696
2018-09-14T11:33:54.202Z,720
2018-09-14T11:34:54.789Z,728
2018-09-14T11:35:55.368Z,744
2018-09-14T11:36:55.947Z,756
2018-09-14T11:37:56.698Z,768
2018-09-14T11:38:57.125Z,764
2018-09-14T11:39:57.708Z,756
2018-09-14T11:40:58.288Z,764
2018-09-14T11:41:58.869Z,776
2018-09-14T11:42:59.451Z,784
2018-09-14T11:44:00.035Z,760
2018-09-14T11:45:00.629Z,748
2018-09-14T11:46:01.220Z,524
2018-09-14T11:47:01.791Z,540
2018-09-14T11:48:02.376Z,512
2018-09-14T11:49:02.957Z,732
2018-09-14T11:50:03.536Z,740
2018-09-14T11:51:04.118Z,756
2018-09-14T11:52:04.701Z,788
2018-09-14T11:53:05.299Z,816
2018-09-14T11:54:05.900Z,820
2018-09-14T11:55:06.492Z,804
2018-09-14T11:56:07.080Z,596
2018-09-14T11:57:07.685Z,556
2018-09-14T11:58:08.282Z,540
2018-09-14T11:59:08.830Z,736
2018-09-14T12:00:09.408Z,752
2018-09-14T12:01:10.010Z,760
2018-09-14T12:02:10.570Z,756
2018-09-14T12:03:11.151Z,752
2018-09-14T12:04:11.796Z,744
2018-09-14T12:05:12.312Z,736
2018-09-14T12:06:12.892Z,720
2018-09-14T12:07:13.477Z,724
2018-09-14T12:08:14.058Z,724
2018-09-14T12:09:14.638Z,712
2018-09-14T12:10:15.221Z,728
2018-09-14T12:11:15.801Z,752
2018-09-14T12:12:16.399Z,776
2018-09-14T12:13:16.994Z,776
2018-09-14T12:14:17.574Z,844
2018-09-14T12:15:18.156Z,856
2018-09-14T12:16:18.738Z,868
2018-09-14T12:17:19.318Z,872
2018-09-14T12:18:19.899Z,868
2018-09-14T12:19:20.481Z,856
2018-09-14T12:20:21.063Z,852
2018-09-14T12:21:21.645Z,844
2018-09-14T12:22:22.312Z,836
2018-09-14T12:23:22.811Z,824
2018-09-14T12:24:23.403Z,828
2018-09-14T12:25:23.986Z,836
2018-09-14T12:26:24.566Z,828
2018-09-14T12:27:25.146Z,828
2018-09-14T12:28:25.811Z,828
2018-09-14T12:29:26.312Z,828
2018-09-14T12:30:26.891Z,812
2018-09-14T12:31:27.473Z,800
2018-09-14T12:32:28.053Z,788
2018-09-14T12:33:28.636Z,736
2018-09-14T12:34:29.217Z,756
2018-09-14T12:35:29.856Z,604
2018-09-14T12:36:30.380Z,604
2018-09-14T12:37:30.975Z,668
2018-09-14T12:38:31.556Z,668
2018-09-14T12:39:32.149Z,760
2018-09-14T12:40:32.732Z,676
2018-09-14T12:41:33.312Z,848
2018-09-14T12:42:33.893Z,880
2018-09-14T12:43:34.478Z,816
2018-09-14T12:44:35.057Z,920
2018-09-14T12:45:35.639Z,980
2018-09-14T12:46:36.221Z,996
2018-09-14T12:47:36.803Z,988
2018-09-14T12:48:37.388Z,964
2018-09-14T12:49:37.980Z,936
2018-09-14T12:50:38.562Z,852
2018-09-14T12:51:39.144Z,652
2018-09-14T12:52:39.725Z,764
2018-09-14T12:53:40.309Z,704
2018-09-14T12:54:40.900Z,820
2018-09-14T12:55:41.482Z,872
2018-09-14T12:56:42.076Z,900
2018-09-14T12:57:42.658Z,936
2018-09-14T12:58:43.240Z,924
2018-09-14T12:59:43.831Z,896
2018-09-14T13:00:44.404Z,884
2018-09-14T13:01:44.984Z,876
2018-09-14T13:02:45.567Z,880
2018-09-14T13:03:46.148Z,884
2018-09-14T13:04:46.745Z,896
2018-09-14T13:05:47.326Z,908
2018-09-14T13:06:47.909Z,908
2018-09-14T13:07:48.506Z,900
2018-09-14T13:08:49.085Z,892
2018-09-14T13:09:49.666Z,880
2018-09-14T13:10:50.248Z,868
2018-09-14T13:11:50.829Z,840
2018-09-14T13:12:51.412Z,724
2018-09-14T13:13:51.994Z,696
2018-09-14T13:14:52.616Z,832
2018-09-14T13:15:53.159Z,676
2018-09-14T13:16:53.737Z,868
2018-09-14T13:17:54.317Z,912
2018-09-14T13:18:54.898Z,904
2018-09-14T13:19:55.494Z,932
2018-09-14T13:20:56.076Z,936
2018-09-14T13:21:56.659Z,944
2018-09-14T13:22:57.238Z,940
2018-09-14T13:23:57.819Z,936
2018-09-14T13:24:58.401Z,948
2018-09-14T13:25:58.982Z,944
2018-09-14T13:26:59.564Z,924
2018-09-14T13:28:00.193Z,924
2018-09-14T13:29:00.737Z,936
2018-09-14T13:30:01.307Z,936
2018-09-14T13:31:01.889Z,952
2018-09-14T13:32:02.469Z,960
2018-09-14T13:33:03.051Z,968
2018-09-14T13:34:03.634Z,972
2018-09-14T13:35:04.228Z,968
2018-09-14T13:36:04.807Z,984
2018-09-14T13:37:05.388Z,968
2018-09-14T13:38:05.970Z,984
2018-09-14T13:39:06.551Z,972
2018-09-14T13:40:07.172Z,984
2018-09-14T13:41:07.716Z,988
2018-09-14T13:42:08.294Z,976
2018-09-14T13:43:08.875Z,992
2018-09-14T13:44:09.460Z,1000
2018-09-14T13:45:10.041Z,996
2018-09-14T13:46:10.624Z,1008
2018-09-14T13:47:11.208Z,1008
2018-09-14T13:48:11.797Z,992
2018-09-14T13:49:12.371Z,992
2018-09-14T13:50:12.956Z,1008
2018-09-14T13:51:13.535Z,992
2018-09-14T13:52:14.116Z,984
2018-09-14T13:53:14.696Z,1016
2018-09-14T13:54:15.281Z,1040
2018-09-14T13:55:15.861Z,1040
2018-09-14T13:56:16.444Z,1048
2018-09-14T13:57:17.045Z,1076
2018-09-14T13:58:17.626Z,1076
2018-09-14T13:59:18.208Z,1092
2018-09-14T14:00:18.792Z,1116
2018-09-14T14:01:19.456Z,1112
2018-09-14T14:02:19.964Z,1128
2018-09-14T14:03:20.546Z,1140
2018-09-14T14:04:21.133Z,1136
2018-09-14T14:05:21.730Z,1116
2018-09-14T14:06:22.308Z,1120
2018-09-14T14:07:22.904Z,1136
2018-09-14T14:08:23.518Z,1140
2018-09-14T14:09:24.070Z,1144
2018-09-14T14:10:24.698Z,1136
2018-09-14T14:11:25.235Z,1120
2018-09-14T14:12:25.825Z,1104
2018-09-14T14:13:26.398Z,1112
2018-09-14T14:14:26.980Z,1124